createdAt,value
2019-06-10T00:00:01.460Z,18.70
2019-06-10T00:02:31.043Z,18.70
2019-06-10T00:05:00.268Z,18.80
2019-06-10T00:07:31.585Z,18.70
2019-06-10T00:10:01.116Z,18.60
2019-06-10T00:12:31.415Z,18.60
2019-06-10T00:15:01.866Z,18.50
2019-06-10T00:17:31.420Z,18.40
2019-06-10T00:20:01.942Z,18.30
2019-06-10T00:22:31.560Z,18.30
2019-06-10T00:25:01.814Z,18.40
2019-06-10T00:27:31.243Z,18.30
2019-06-10T00:30:02.605Z,18.30
2019-06-10T00:32:31.985Z,18.20
2019-06-10T00:35:07.717Z,18.10
2019-06-10T00:37:35.891Z,18.00
2019-06-10T00:40:05.482Z,18.00
2019-06-10T00:42:34.074Z,18.00
2019-06-10T00:45:04.484Z,18.00
2019-06-10T00:47:31.730Z,18.00
2019-06-10T00:50:08.535Z,17.90
2019-06-10T00:52:35.218Z,17.80
2019-06-10T00:55:04.574Z,17.80
2019-06-10T00:57:32.968Z,17.80
2019-06-10T01:00:07.742Z,17.80
2019-06-10T01:02:32.398Z,18.00
2019-06-10T01:05:00.780Z,17.90
2019-06-10T01:07:31.120Z,17.90
2019-06-10T01:10:00.963Z,18.00
2019-06-10T01:12:31.619Z,18.10
2019-06-10T01:15:00.876Z,18.10
2019-06-10T01:17:31.130Z,17.90
2019-06-10T01:20:01.352Z,18.00
2019-06-10T01:22:31.598Z,18.00
2019-06-10T01:25:01.607Z,18.10
2019-06-10T01:27:31.538Z,18.00
2019-06-10T01:30:01.494Z,18.10
2019-06-10T01:32:31.208Z,18.10
2019-06-10T01:35:01.117Z,18.20
2019-06-10T01:37:31.122Z,18.20
2019-06-10T01:40:00.783Z,18.20
2019-06-10T01:42:30.742Z,18.10
2019-06-10T01:45:01.047Z,18.00
2019-06-10T01:47:28.342Z,17.90
2019-06-10T01:49:56.090Z,17.90
2019-06-10T01:52:23.779Z,18.10
2019-06-10T01:54:51.735Z,18.00
2019-06-10T01:57:22.021Z,18.00
2019-06-10T01:59:50.902Z,17.90
2019-06-10T02:02:23.686Z,17.70
2019-06-10T02:04:51.887Z,17.80
2019-06-10T02:07:22.713Z,17.80
2019-06-10T02:09:51.801Z,17.90
2019-06-10T02:12:23.716Z,18.00
2019-06-10T02:14:50.906Z,18.00
2019-06-10T02:17:23.033Z,18.00
2019-06-10T02:19:50.739Z,18.10
2019-06-10T02:22:20.257Z,18.20
2019-06-10T02:24:50.528Z,18.10
2019-06-10T02:27:24.225Z,17.90
2019-06-10T02:29:52.095Z,17.90
2019-06-10T02:32:30.744Z,17.90
2019-06-10T02:35:06.962Z,18.00
2019-06-10T02:37:24.152Z,18.10
2019-06-10T02:39:49.139Z,18.10
2019-06-10T02:42:30.127Z,18.10
2019-06-10T02:44:54.299Z,18.10
2019-06-10T02:47:26.383Z,18.10
2019-06-10T02:49:59.053Z,18.00
2019-06-10T02:52:29.286Z,17.80
2019-06-10T02:54:53.468Z,17.70
2019-06-10T02:57:28.471Z,17.60
2019-06-10T02:59:50.126Z,17.60
2019-06-10T03:02:18.769Z,17.70
2019-06-10T03:04:47.452Z,17.60
2019-06-10T03:07:15.890Z,17.60
2019-06-10T03:09:43.694Z,17.60
2019-06-10T03:12:12.210Z,17.60
2019-06-10T03:14:42.259Z,17.60
2019-06-10T03:17:32.302Z,17.60
2019-06-10T03:20:16.013Z,17.70
2019-06-10T03:22:42.143Z,17.70
2019-06-10T03:25:09.451Z,17.60
2019-06-10T03:27:37.322Z,17.60
2019-06-10T03:30:15.788Z,17.60
2019-06-10T03:32:40.676Z,17.70
2019-06-10T03:35:05.615Z,17.60
2019-06-10T03:37:34.010Z,17.50
2019-06-10T03:40:02.469Z,17.40
2019-06-10T03:42:32.539Z,17.40
2019-06-10T03:45:00.324Z,17.50
2019-06-10T03:47:28.804Z,17.50
2019-06-10T03:49:56.610Z,17.50
2019-06-10T03:52:25.653Z,17.60
2019-06-10T03:54:55.336Z,17.60
2019-06-10T03:57:24.202Z,17.70
2019-06-10T03:59:52.921Z,17.70
2019-06-10T04:02:23.492Z,17.70
2019-06-10T04:04:52.354Z,17.70
2019-06-10T04:07:23.811Z,17.60
2019-06-10T04:09:49.807Z,17.70
2019-06-10T04:12:17.523Z,17.70
2019-06-10T04:14:45.156Z,17.70
2019-06-10T04:17:13.111Z,17.70
2019-06-10T04:19:42.123Z,17.70
2019-06-10T04:22:10.022Z,17.60
2019-06-10T04:24:37.857Z,17.60
2019-06-10T04:27:05.650Z,17.70
2019-06-10T04:29:33.495Z,17.70
2019-06-10T04:32:03.050Z,17.70
2019-06-10T04:34:33.245Z,17.80
2019-06-10T04:37:00.309Z,17.80
2019-06-10T04:39:29.187Z,17.70
2019-06-10T04:41:57.045Z,17.60
2019-06-10T04:44:26.293Z,17.60
2019-06-10T04:46:54.413Z,17.60
2019-06-10T04:49:25.092Z,17.70
2019-06-10T04:51:52.439Z,17.70
2019-06-10T04:54:21.397Z,17.70
2019-06-10T04:56:49.742Z,17.70
2019-06-10T04:59:18.859Z,17.50
2019-06-10T05:01:46.601Z,17.50
2019-06-10T05:04:14.353Z,17.50
2019-06-10T05:06:42.407Z,17.50
2019-06-10T05:09:12.323Z,17.50
2019-06-10T05:11:40.015Z,17.60
2019-06-10T05:14:07.705Z,17.60
2019-06-10T05:16:36.027Z,17.50
2019-06-10T05:19:04.046Z,17.50
2019-06-10T05:21:33.739Z,17.60
2019-06-10T05:24:02.941Z,17.70
2019-06-10T05:26:33.290Z,17.70
2019-06-10T05:29:02.874Z,17.90
2019-06-10T05:31:31.173Z,17.80
2019-06-10T05:33:59.685Z,17.70
2019-06-10T05:36:29.856Z,17.70
2019-06-10T05:38:57.383Z,17.80
2019-06-10T05:41:27.862Z,17.80
2019-06-10T05:43:54.721Z,17.80
2019-06-10T05:46:24.319Z,17.70
2019-06-10T05:48:52.629Z,17.50
2019-06-10T05:51:22.660Z,17.50
2019-06-10T05:53:52.569Z,17.50
2019-06-10T05:56:21.941Z,17.30
2019-06-10T05:58:49.235Z,17.30
2019-06-10T06:01:17.089Z,17.20
2019-06-10T06:03:44.662Z,17.20
2019-06-10T06:06:12.622Z,17.20
2019-06-10T06:08:42.631Z,17.40
2019-06-10T06:11:12.410Z,17.40
2019-06-10T06:13:39.947Z,17.50
2019-06-10T06:16:07.738Z,17.50
2019-06-10T06:18:36.507Z,17.30
2019-06-10T06:21:20.800Z,17.30
2019-06-10T06:23:37.066Z,17.40
2019-06-10T06:26:05.683Z,17.40
2019-06-10T06:28:35.973Z,17.40
2019-06-10T06:31:03.477Z,17.40
2019-06-10T06:33:34.795Z,17.40
2019-06-10T06:36:03.564Z,17.40
2019-06-10T06:38:33.493Z,17.30
2019-06-10T06:41:02.966Z,17.20
2019-06-10T06:43:32.837Z,17.20
2019-06-10T06:46:02.233Z,17.10
2019-06-10T06:48:29.986Z,17.10
2019-06-10T06:51:04.374Z,17.10
2019-06-10T06:53:33.324Z,17.20
2019-06-10T06:55:57.248Z,17.30
2019-06-10T06:58:25.078Z,17.40
2019-06-10T07:01:04.155Z,17.30
2019-06-10T07:03:23.603Z,17.30
2019-06-10T07:05:53.007Z,17.20
2019-06-10T07:08:22.776Z,17.30
2019-06-10T07:10:53.981Z,17.40
2019-06-10T07:13:22.305Z,17.50
2019-06-10T07:15:53.495Z,17.40
2019-06-10T07:18:23.246Z,17.40
2019-06-10T07:20:53.624Z,17.40
2019-06-10T07:23:22.538Z,17.40
2019-06-10T07:25:50.188Z,17.50
2019-06-10T07:28:18.112Z,17.60
2019-06-10T07:30:51.217Z,17.70
2019-06-10T07:33:15.562Z,18.00
2019-06-10T07:35:45.020Z,18.10
2019-06-10T07:38:12.992Z,18.20
2019-06-10T07:40:44.297Z,18.40
2019-06-10T07:43:12.759Z,18.50
2019-06-10T07:45:41.874Z,18.60
2019-06-10T07:48:12.054Z,18.80
2019-06-10T07:50:39.635Z,18.90
2019-06-10T07:53:07.438Z,19.10
2019-06-10T07:55:36.628Z,19.10
2019-06-10T07:58:04.799Z,19.10
2019-06-10T08:00:33.672Z,19.00
2019-06-10T08:03:04.810Z,19.00
2019-06-10T08:05:34.097Z,19.00
2019-06-10T08:08:02.792Z,19.00
2019-06-10T08:10:32.806Z,19.20
2019-06-10T08:13:00.234Z,19.30
2019-06-10T08:15:28.394Z,19.40
2019-06-10T08:17:56.105Z,19.50
2019-06-10T08:20:43.826Z,19.60
2019-06-10T08:23:15.847Z,19.70
2019-06-10T08:25:52.896Z,19.80
2019-06-10T08:28:15.834Z,19.80
2019-06-10T08:30:45.884Z,19.80
2019-06-10T08:33:13.926Z,19.90
2019-06-10T08:35:52.167Z,19.80
2019-06-10T08:38:12.507Z,19.90
2019-06-10T08:40:41.142Z,19.90
2019-06-10T08:43:10.183Z,20.00
2019-06-10T08:45:38.891Z,20.00
2019-06-10T08:48:07.114Z,20.10
2019-06-10T08:50:35.542Z,20.20
2019-06-10T08:53:13.911Z,20.20
2019-06-10T08:55:33.609Z,20.10
2019-06-10T08:58:02.749Z,20.20
2019-06-10T09:00:33.734Z,20.10
2019-06-10T09:03:03.995Z,20.20
2019-06-10T09:05:32.406Z,20.20
2019-06-10T09:08:02.879Z,20.20
2019-06-10T09:10:31.453Z,20.30
2019-06-10T09:13:02.612Z,20.30
2019-06-10T09:15:32.369Z,20.30
2019-06-10T09:18:02.477Z,20.30
2019-06-10T09:20:29.935Z,20.20
2019-06-10T09:23:16.786Z,20.10
2019-06-10T09:25:27.357Z,20.10
2019-06-10T09:27:55.220Z,20.10
2019-06-10T09:30:23.809Z,20.00
2019-06-10T09:32:56.404Z,19.90
2019-06-10T09:35:24.090Z,20.10
2019-06-10T09:37:55.374Z,20.20
2019-06-10T09:40:23.014Z,20.40
2019-06-10T09:42:55.055Z,20.60
2019-06-10T09:45:22.498Z,20.90
2019-06-10T09:47:58.713Z,21.00
2019-06-10T09:50:28.718Z,21.00
2019-06-10T09:52:58.190Z,20.90
2019-06-10T09:55:32.881Z,20.90
2019-06-10T09:58:03.065Z,20.80
2019-06-10T10:00:47.540Z,20.70
2019-06-10T10:03:13.841Z,20.70
2019-06-10T10:05:52.575Z,20.80
2019-06-10T10:08:12.700Z,20.90
2019-06-10T10:10:42.823Z,20.90
2019-06-10T10:13:13.119Z,21.00
2019-06-10T10:15:41.860Z,21.00
2019-06-10T10:20:38.611Z,21.40
2019-06-10T10:23:06.920Z,21.50
2019-06-10T10:25:35.035Z,21.70
2019-06-10T10:28:03.309Z,21.80
2019-06-10T10:30:35.473Z,21.90
2019-06-10T10:33:03.869Z,22.00
2019-06-10T10:35:32.652Z,22.10
2019-06-10T10:38:03.689Z,22.00
2019-06-10T10:40:32.591Z,22.00
2019-06-10T10:43:22.247Z,22.20
2019-06-10T10:45:31.792Z,22.40
2019-06-10T10:47:59.635Z,22.50
2019-06-10T10:50:27.562Z,22.70
2019-06-10T10:52:55.186Z,22.70
2019-06-10T10:55:23.027Z,22.70
2019-06-10T10:57:54.330Z,22.70
2019-06-10T11:00:22.622Z,22.70
2019-06-10T11:02:52.658Z,22.80
2019-06-10T11:05:33.241Z,22.90
2019-06-10T11:08:04.341Z,22.80
2019-06-10T11:10:33.686Z,22.90
2019-06-10T11:13:07.786Z,22.90
2019-06-10T11:15:36.543Z,22.90
2019-06-10T11:18:05.944Z,22.80
2019-06-10T11:20:35.232Z,22.70
2019-06-10T11:23:03.295Z,22.70
2019-06-10T11:25:33.223Z,22.70
2019-06-10T11:28:04.025Z,22.50
2019-06-10T11:30:32.448Z,22.60
2019-06-10T11:33:03.431Z,22.70
2019-06-10T11:35:31.438Z,22.60
2019-06-10T11:37:59.320Z,22.60
2019-06-10T11:40:27.367Z,22.50
2019-06-10T11:42:59.238Z,22.30
2019-06-10T11:45:25.604Z,22.10
2019-06-10T11:47:55.485Z,22.20
2019-06-10T11:50:23.492Z,22.10
2019-06-10T11:52:55.457Z,22.10
2019-06-10T11:55:23.773Z,22.10
2019-06-10T11:57:54.916Z,22.10
2019-06-10T12:00:23.174Z,22.10
2019-06-10T12:02:53.710Z,22.20
2019-06-10T12:05:23.536Z,22.20
2019-06-10T12:07:56.366Z,22.10
2019-06-10T12:10:23.356Z,22.10
2019-06-10T12:12:55.086Z,21.90
2019-06-10T12:15:22.742Z,21.80
2019-06-10T12:17:58.665Z,21.80
2019-06-10T12:20:22.673Z,21.80
2019-06-10T12:22:52.245Z,21.80
2019-06-10T12:25:32.426Z,21.80
2019-06-10T12:27:51.239Z,21.80
2019-06-10T12:30:22.446Z,21.80
2019-06-10T12:32:54.462Z,21.80
2019-06-10T12:35:22.976Z,21.80
2019-06-10T12:37:52.023Z,21.90
2019-06-10T12:40:21.032Z,22.10
2019-06-10T12:42:49.154Z,22.20
2019-06-10T12:45:17.143Z,22.20
2019-06-10T12:47:46.544Z,22.20
2019-06-10T12:50:14.830Z,22.20
2019-06-10T12:52:43.270Z,22.30
2019-06-10T12:55:12.550Z,22.20
2019-06-10T12:57:42.690Z,22.20
2019-06-10T13:00:20.441Z,22.10
2019-06-10T13:02:42.844Z,22.20
2019-06-10T13:05:12.277Z,22.40
2019-06-10T13:07:42.927Z,22.40
2019-06-10T13:10:12.209Z,22.40
2019-06-10T13:12:42.937Z,22.40
2019-06-10T13:15:11.224Z,22.40
2019-06-10T13:17:39.283Z,22.30
2019-06-10T13:20:08.307Z,22.10
2019-06-10T13:22:36.421Z,22.00
2019-06-10T13:25:04.778Z,22.00
2019-06-10T13:27:32.844Z,22.00
2019-06-10T13:30:02.359Z,21.80
2019-06-10T13:32:32.518Z,21.50
2019-06-10T13:35:01.050Z,21.20
2019-06-10T13:37:32.097Z,21.00
2019-06-10T13:39:59.904Z,20.70
2019-06-10T13:42:27.902Z,20.50
2019-06-10T13:44:55.661Z,20.20
2019-06-10T13:47:26.104Z,20.00
2019-06-10T13:49:53.426Z,19.70
2019-06-10T13:52:23.385Z,19.60
2019-06-10T13:54:52.657Z,19.40
2019-06-10T13:57:22.869Z,19.30
2019-06-10T13:59:52.014Z,19.30
2019-06-10T14:02:19.968Z,19.20
2019-06-10T14:04:47.777Z,19.20
2019-06-10T14:07:17.269Z,19.30
2019-06-10T14:09:45.190Z,19.20
2019-06-10T14:12:17.562Z,19.40
2019-06-10T14:14:42.695Z,19.40
2019-06-10T14:17:15.920Z,19.50
2019-06-10T14:19:40.312Z,19.50
2019-06-10T14:22:09.961Z,19.70
2019-06-10T14:24:38.518Z,19.80
2019-06-10T14:27:08.713Z,19.90
2019-06-10T14:29:36.023Z,20.00
2019-06-10T14:32:04.416Z,20.00
2019-06-10T14:34:33.909Z,20.10
2019-06-10T14:37:01.747Z,20.20
2019-06-10T14:39:29.530Z,20.40
2019-06-10T14:41:59.344Z,20.40
2019-06-10T14:44:26.898Z,20.40
2019-06-10T14:46:54.661Z,20.30
2019-06-10T14:49:22.515Z,20.10
2019-06-10T14:51:50.351Z,20.00
2019-06-10T14:54:18.438Z,19.90
2019-06-10T14:56:52.956Z,19.80
2019-06-10T14:59:17.946Z,19.80
2019-06-10T15:01:45.909Z,19.80
2019-06-10T15:04:16.040Z,19.90
2019-06-10T15:06:43.495Z,19.80
2019-06-10T15:09:11.640Z,19.90
2019-06-10T15:11:39.465Z,19.90
2019-06-10T15:14:07.786Z,19.80
2019-06-10T15:16:35.927Z,19.80
2019-06-10T15:19:14.564Z,19.80
2019-06-10T15:21:33.465Z,19.80
2019-06-10T15:24:02.978Z,19.90
2019-06-10T15:26:32.636Z,19.90
2019-06-10T15:29:02.596Z,19.90
2019-06-10T15:31:30.426Z,20.00
2019-06-10T15:33:58.163Z,20.00
2019-06-10T15:36:26.047Z,19.90
2019-06-10T15:38:53.851Z,19.90
2019-06-10T15:41:24.370Z,19.80
2019-06-10T15:43:53.051Z,19.90
2019-06-10T15:46:21.014Z,19.80
2019-06-10T15:48:48.890Z,19.60
2019-06-10T15:51:19.874Z,19.60
2019-06-10T15:53:46.365Z,19.60
2019-06-10T15:56:24.602Z,19.60
2019-06-10T15:58:43.890Z,19.60
2019-06-10T16:01:14.455Z,19.60
2019-06-10T16:03:42.401Z,19.60
2019-06-10T16:06:10.337Z,19.50
2019-06-10T16:08:38.045Z,19.60
2019-06-10T16:11:05.813Z,19.80
2019-06-10T16:13:33.527Z,19.80
2019-06-10T16:16:03.612Z,19.90
2019-06-10T16:18:33.016Z,19.80
2019-06-10T16:21:03.967Z,19.70
2019-06-10T16:23:33.237Z,19.70
2019-06-10T16:26:02.565Z,19.70
2019-06-10T16:28:32.678Z,19.80
2019-06-10T16:31:02.517Z,19.90
2019-06-10T16:33:29.822Z,19.80
2019-06-10T16:35:57.588Z,19.90
2019-06-10T16:38:26.932Z,19.90
2019-06-10T16:40:55.224Z,19.90
2019-06-10T16:43:25.768Z,19.90
2019-06-10T16:45:52.763Z,20.00
2019-06-10T16:48:21.565Z,20.10
2019-06-10T16:50:49.682Z,20.10
2019-06-10T16:53:17.914Z,20.10
2019-06-10T16:55:45.694Z,20.10
2019-06-10T16:58:13.488Z,20.10
2019-06-10T17:00:43.264Z,20.10
2019-06-10T17:03:12.822Z,20.10
2019-06-10T17:05:42.601Z,20.20
2019-06-10T17:08:12.691Z,20.20
2019-06-10T17:10:40.284Z,20.30
2019-06-10T17:13:09.592Z,20.40
2019-06-10T17:15:38.884Z,20.40
2019-06-10T17:18:06.934Z,20.40
2019-06-10T17:20:34.777Z,20.40
2019-06-10T17:23:23.985Z,20.40
2019-06-10T17:25:53.409Z,20.30
2019-06-10T17:28:27.154Z,20.20
2019-06-10T17:30:54.055Z,20.20
2019-06-10T17:33:25.453Z,20.20
2019-06-10T17:35:52.822Z,20.20
2019-06-10T17:38:20.623Z,20.30
2019-06-10T17:40:48.425Z,20.20
2019-06-10T17:43:16.234Z,20.10
2019-06-10T17:45:44.010Z,20.00
2019-06-10T17:48:12.957Z,20.00
2019-06-10T17:50:42.886Z,20.00
2019-06-10T17:53:12.761Z,19.80
2019-06-10T17:55:40.375Z,19.60
2019-06-10T17:58:08.100Z,19.50
2019-06-10T18:00:36.408Z,19.40
2019-06-10T18:03:04.336Z,19.30
2019-06-10T18:05:33.304Z,19.30
2019-06-10T18:08:02.299Z,19.30
2019-06-10T18:10:33.095Z,19.30
2019-06-10T18:13:12.727Z,19.30
2019-06-10T18:15:30.342Z,19.30
2019-06-10T18:17:59.655Z,19.30
2019-06-10T18:20:28.770Z,19.40
2019-06-10T18:22:56.761Z,19.50
2019-06-10T18:25:24.677Z,19.50
2019-06-10T18:27:52.469Z,19.50
2019-06-10T18:30:22.132Z,19.30
2019-06-10T18:32:52.430Z,19.40
2019-06-10T18:35:22.215Z,19.40
2019-06-10T18:37:49.870Z,19.40
2019-06-10T18:40:17.942Z,19.30
2019-06-10T18:42:45.974Z,19.20
2019-06-10T18:45:14.339Z,19.10
2019-06-10T18:47:43.707Z,19.20
2019-06-10T18:50:12.733Z,19.10
2019-06-10T18:52:43.325Z,19.00
2019-06-10T18:55:12.240Z,19.10
2019-06-10T18:57:42.591Z,19.10
2019-06-10T19:00:14.316Z,19.20
2019-06-10T19:02:42.342Z,19.30
2019-06-10T19:05:13.109Z,19.30
2019-06-10T19:07:42.894Z,19.40
2019-06-10T19:10:12.792Z,19.40
2019-06-10T19:12:42.588Z,19.40
2019-06-10T19:15:12.242Z,19.40
2019-06-10T19:17:44.301Z,19.20
2019-06-10T19:20:12.983Z,19.20
2019-06-10T19:22:43.238Z,19.00
2019-06-10T19:25:12.764Z,18.90
2019-06-10T19:27:44.258Z,18.90
2019-06-10T19:30:11.276Z,18.80
2019-06-10T19:32:40.076Z,18.70
2019-06-10T19:35:09.281Z,18.70
2019-06-10T19:37:39.025Z,18.70
2019-06-10T19:40:07.738Z,18.60
2019-06-10T19:42:37.531Z,18.60
2019-06-10T19:45:07.232Z,18.60
2019-06-10T19:47:37.591Z,18.60
2019-06-10T19:50:06.224Z,18.70
2019-06-10T19:52:35.221Z,18.70
2019-06-10T19:55:06.477Z,18.60
2019-06-10T19:57:34.368Z,18.60
2019-06-10T20:00:11.779Z,18.50
2019-06-10T20:02:37.527Z,18.60
2019-06-10T20:05:05.747Z,18.60
2019-06-10T20:07:34.379Z,18.60
2019-06-10T20:10:02.849Z,18.60
2019-06-10T20:12:32.429Z,18.60
2019-06-10T20:15:02.311Z,18.50
2019-06-10T20:17:32.815Z,18.40
2019-06-10T20:20:02.527Z,18.40
2019-06-10T20:22:32.134Z,18.30
2019-06-10T20:25:00.049Z,18.20
2019-06-10T20:27:28.999Z,18.10
2019-06-10T20:30:07.803Z,18.10
2019-06-10T20:32:26.518Z,18.10
2019-06-10T20:34:54.448Z,17.90
2019-06-10T20:37:22.660Z,17.80
2019-06-10T20:39:50.606Z,17.80
2019-06-10T20:42:18.463Z,17.80
2019-06-10T20:44:47.861Z,17.80
2019-06-10T20:47:16.095Z,17.80
2019-06-10T20:49:46.012Z,17.70
2019-06-10T20:52:14.925Z,17.70
2019-06-10T20:54:43.749Z,17.70
2019-06-10T20:57:12.594Z,17.70
2019-06-10T20:59:43.723Z,17.80
2019-06-10T21:02:10.124Z,18.00
2019-06-10T21:04:39.019Z,18.00
2019-06-10T21:07:07.849Z,18.00
2019-06-10T21:09:37.764Z,17.90
2019-06-10T21:12:07.190Z,17.90
2019-06-10T21:14:34.913Z,17.90
2019-06-10T21:17:03.175Z,17.90
2019-06-10T21:19:33.080Z,17.90
2019-06-10T21:22:02.769Z,17.80
2019-06-10T21:24:32.334Z,17.70
2019-06-10T21:26:59.955Z,17.60
2019-06-10T21:29:27.861Z,17.50
2019-06-10T21:31:55.625Z,17.40
2019-06-10T21:34:23.406Z,17.40
2019-06-10T21:36:53.980Z,17.40
2019-06-10T21:39:22.126Z,17.40
2019-06-10T21:41:49.978Z,17.30
2019-06-10T21:44:19.357Z,17.40
2019-06-10T21:46:47.713Z,17.40
2019-06-10T21:49:16.600Z,17.50
2019-06-10T21:51:47.144Z,17.40
2019-06-10T21:54:14.271Z,17.50
2019-06-10T21:56:43.117Z,17.30
2019-06-10T21:59:12.646Z,17.40
2019-06-10T22:01:42.968Z,17.40
2019-06-10T22:04:13.214Z,17.50
2019-06-10T22:06:42.217Z,17.50
2019-06-10T22:09:12.354Z,17.50
2019-06-10T22:11:39.580Z,17.60
2019-06-10T22:14:07.546Z,17.60
2019-06-10T22:16:35.418Z,17.70
2019-06-10T22:19:04.085Z,17.80
2019-06-10T22:21:32.609Z,17.80
2019-06-10T22:24:02.236Z,17.70
2019-06-10T22:26:32.126Z,17.60
2019-06-10T22:28:59.857Z,17.40
2019-06-10T22:31:27.545Z,17.40
2019-06-10T22:33:57.444Z,17.30
2019-06-10T22:36:24.916Z,17.30
2019-06-10T22:38:55.773Z,17.30
2019-06-10T22:41:22.691Z,17.30
2019-06-10T22:43:52.148Z,17.10
2019-06-10T22:46:20.234Z,17.00
2019-06-10T22:48:48.955Z,17.00
2019-06-10T22:51:16.801Z,17.10
2019-06-10T22:53:44.554Z,17.10
2019-06-10T22:56:12.404Z,17.10
2019-06-10T22:58:40.171Z,17.00
2019-06-10T23:01:07.951Z,17.00
2019-06-10T23:03:35.636Z,17.00
2019-06-10T23:06:03.425Z,17.20
2019-06-10T23:08:33.254Z,17.30
2019-06-10T23:11:02.794Z,17.40
2019-06-10T23:13:30.361Z,17.40
2019-06-10T23:15:58.650Z,17.40
2019-06-10T23:18:28.346Z,17.30
2019-06-10T23:20:57.873Z,17.30
2019-06-10T23:23:25.681Z,17.30
2019-06-10T23:25:55.969Z,17.40
2019-06-10T23:28:23.745Z,17.40
2019-06-10T23:30:55.277Z,17.40
2019-06-10T23:33:22.863Z,17.50
2019-06-10T23:35:50.751Z,17.50
2019-06-10T23:38:18.452Z,17.60
2019-06-10T23:40:46.785Z,17.60
2019-06-10T23:43:14.453Z,17.70
2019-06-10T23:45:42.474Z,17.70
2019-06-10T23:48:13.092Z,17.60
2019-06-10T23:50:40.036Z,17.60
2019-06-10T23:53:08.094Z,17.50
2019-06-10T23:55:35.857Z,17.40
2019-06-10T23:58:03.706Z,17.40
